Time;durP1;ratioP1;P1;durP2;ratioP2;P2;SDS_P1;SDS_P2;PMS_P1;PMS_P2;Temp;Humidity;BMP_temperature;BMP_pressure;BME280_temperature;BME280_humidity;BME280_pressure;Samples;Min_cycle;Max_cycle;Signal;HPM_P1;HPM_P2
2022/07/05 00:00:09;;;;;;;12.70;2.38;;;28.90;99.90;;;;;;4992595;28;20030;-71
2022/07/05 00:02:34;;;;;;;9.45;2.88;;;28.90;99.90;;;;;;4995738;28;20149;-71
2022/07/05 00:05:00;;;;;;;12.57;2.83;;;28.90;99.90;;;;;;4992264;28;20128;-71
2022/07/05 00:07:26;;;;;;;15.30;3.00;;;28.80;99.90;;;;;;4993031;28;20034;-71
2022/07/05 00:09:54;;;;;;;20.02;2.58;;;28.80;99.90;;;;;;4992433;28;20030;-71
2022/07/05 00:12:22;;;;;;;14.05;2.90;;;28.80;99.90;;;;;;4990945;28;20413;-71
2022/07/05 00:14:48;;;;;;;12.85;2.78;;;28.70;99.90;;;;;;4992145;28;20145;-71
2022/07/05 00:17:14;;;;;;;11.23;2.55;;;28.70;99.90;;;;;;4992911;28;20373;-71
2022/07/05 00:19:41;;;;;;;11.07;2.50;;;28.70;99.90;;;;;;4992246;28;20034;-71
2022/07/05 00:22:07;;;;;;;9.63;2.22;;;28.70;99.90;;;;;;4992792;28;20101;-71
2022/07/05 00:24:33;;;;;;;12.65;2.60;;;28.60;99.90;;;;;;4992377;28;20147;-71
2022/07/05 00:26:59;;;;;;;13.73;2.67;;;28.60;99.90;;;;;;4992316;28;20088;-71
2022/07/05 00:29:25;;;;;;;12.15;2.50;;;28.60;99.90;;;;;;4992304;28;20026;-71
2022/07/05 00:31:50;;;;;;;11.10;2.58;;;28.50;99.90;;;;;;4995109;28;20034;-71
2022/07/05 00:34:16;;;;;;;10.48;2.58;;;28.50;99.90;;;;;;4992365;28;20026;-71
2022/07/05 00:36:42;;;;;;;12.27;2.75;;;28.50;99.60;;;;;;4992126;28;20022;-71
2022/07/05 00:39:09;;;;;;;12.60;2.50;;;28.50;99.60;;;;;;4992133;28;20073;-71
2022/07/05 00:41:35;;;;;;;13.90;2.63;;;28.40;99.60;;;;;;4995139;28;20030;-71
2022/07/05 00:44:04;;;;;;;9.40;2.35;;;28.50;99.70;;;;;;4992025;28;20038;-71
2022/07/05 00:46:30;;;;;;;9.02;2.90;;;28.50;99.90;;;;;;4992072;28;20026;-71
2022/07/05 00:48:58;;;;;;;15.13;2.60;;;28.40;99.70;;;;;;4991908;28;20405;-71
2022/07/05 00:51:25;;;;;;;11.32;2.72;;;28.40;99.40;;;;;;4987770;28;20022;-71
2022/07/05 00:53:51;;;;;;;10.23;2.80;;;28.30;99.60;;;;;;4992092;28;20153;-71
2022/07/05 00:56:19;;;;;;;8.30;2.83;;;28.30;99.50;;;;;;4991887;28;20024;-71
2022/07/05 00:58:45;;;;;;;10.00;2.50;;;28.30;99.40;;;;;;4991764;28;20037;-71
2022/07/05 01:01:11;;;;;;;10.10;2.53;;;28.30;99.50;;;;;;4994393;28;20056;-71
2022/07/05 01:03:37;;;;;;;12.10;2.60;;;28.30;99.60;;;;;;4991793;28;20458;-71
2022/07/05 01:06:06;;;;;;;9.77;2.33;;;28.30;99.50;;;;;;4991668;28;20054;-71
2022/07/05 01:08:35;;;;;;;18.15;3.20;;;28.30;99.40;;;;;;4991639;28;20089;-71
2022/07/05 01:11:01;;;;;;;7.95;2.63;;;28.30;99.30;;;;;;4992438;28;20441;-71
2022/07/05 01:13:27;;;;;;;7.78;2.50;;;28.30;99.30;;;;;;4992042;28;20050;-71
2022/07/05 01:15:54;;;;;;;15.77;2.47;;;28.30;99.10;;;;;;4990452;28;20028;-71
2022/07/05 01:18:21;;;;;;;6.55;2.03;;;28.30;98.80;;;;;;4992089;28;20026;-71
2022/07/05 01:20:49;;;;;;;10.52;2.63;;;28.30;98.50;;;;;;4989932;28;20110;-71
2022/07/05 01:23:16;;;;;;;10.07;2.40;;;28.30;98.30;;;;;;4991691;28;20078;-73
2022/07/05 01:25:42;;;;;;;5.93;2.08;;;28.20;98.40;;;;;;4990862;28;20616;-73
2022/07/05 01:28:08;;;;;;;8.68;2.55;;;28.20;98.40;;;;;;4992025;28;20033;-73
2022/07/05 01:30:35;;;;;;;8.68;2.42;;;28.20;98.50;;;;;;4994204;28;20034;-73
2022/07/05 01:33:01;;;;;;;8.77;2.42;;;28.20;98.60;;;;;;4991981;28;20117;-73
2022/07/05 01:35:26;;;;;;;7.25;2.42;;;28.20;98.60;;;;;;4990881;28;20034;-73
2022/07/05 01:37:52;;;;;;;12.43;2.85;;;28.20;98.60;;;;;;4991838;28;20023;-73
2022/07/05 01:40:19;;;;;;;12.73;2.70;;;28.20;98.60;;;;;;4991914;28;20026;-73
2022/07/05 01:42:46;;;;;;;10.90;2.50;;;28.20;98.60;;;;;;4993481;28;20035;-73
2022/07/05 01:45:12;;;;;;;23.30;4.15;;;28.20;98.50;;;;;;4989666;28;20481;-73
2022/07/05 01:47:44;;;;;;;14.18;2.63;;;28.10;98.50;;;;;;4991616;28;20031;-73
2022/07/05 01:50:15;;;;;;;7.10;2.25;;;28.10;98.60;;;;;;4989515;28;20030;-73
2022/07/05 01:52:43;;;;;;;10.20;2.42;;;28.10;98.40;;;;;;4993287;28;20074;-73
2022/07/05 01:55:09;;;;;;;12.00;2.45;;;28.00;98.10;;;;;;4994898;28;20026;-73
2022/07/05 01:57:35;;;;;;;9.13;2.55;;;28.00;98.10;;;;;;4995545;28;20026;-73
2022/07/05 02:00:01;;;;;;;11.13;2.95;;;28.00;98.10;;;;;;4994829;28;20025;-73
2022/07/05 02:02:27;;;;;;;7.15;2.63;;;27.90;98.20;;;;;;4998182;28;20530;-74
2022/07/05 02:04:52;;;;;;;21.27;3.30;;;27.90;98.90;;;;;;4993997;28;20022;-74
2022/07/05 02:07:18;;;;;;;11.38;3.38;;;27.90;99.00;;;;;;4995649;28;20428;-73
2022/07/05 02:09:44;;;;;;;9.73;3.17;;;27.90;99.50;;;;;;4992838;28;20034;-73
2022/07/05 02:12:10;;;;;;;7.15;2.75;;;27.90;99.80;;;;;;4996392;28;20643;-73
2022/07/05 02:14:36;;;;;;;8.90;3.50;;;27.80;99.90;;;;;;4994003;28;20053;-73
2022/07/05 02:17:02;;;;;;;12.90;3.22;;;27.80;99.90;;;;;;4994816;28;20118;-74
2022/07/05 02:19:28;;;;;;;13.23;3.78;;;27.80;99.90;;;;;;4994967;28;20026;-74
2022/07/05 02:21:54;;;;;;;8.50;3.45;;;27.80;99.90;;;;;;4994231;28;20534;-74
2022/07/05 02:24:20;;;;;;;9.18;3.15;;;27.80;99.90;;;;;;4994610;28;20038;-73
2022/07/05 02:26:47;;;;;;;7.88;3.20;;;27.80;99.90;;;;;;4994696;28;20015;-74
2022/07/05 02:29:13;;;;;;;17.23;3.75;;;27.70;99.90;;;;;;4994529;28;20037;-74
2022/07/05 02:31:39;;;;;;;13.75;3.80;;;27.70;99.90;;;;;;4987652;28;20413;-73
2022/07/05 02:34:04;;;;;;;11.48;3.05;;;27.70;99.90;;;;;;4991220;28;20034;-73
2022/07/05 02:36:30;;;;;;;10.20;3.67;;;27.70;99.90;;;;;;4993999;28;20022;-73
2022/07/05 02:38:56;;;;;;;11.95;3.53;;;27.70;99.90;;;;;;4994627;28;20050;-72
2022/07/05 02:41:21;;;;;;;8.43;3.53;;;27.60;99.90;;;;;;4996991;28;20026;-72
2022/07/05 02:43:47;;;;;;;19.05;3.45;;;27.70;99.90;;;;;;4994139;28;20501;-72
2022/07/05 02:46:13;;;;;;;10.15;3.33;;;27.60;99.90;;;;;;4994150;28;20362;-72
2022/07/05 02:48:39;;;;;;;10.90;4.00;;;27.60;99.90;;;;;;4994208;28;20023;-72
2022/07/05 02:51:06;;;;;;;13.50;3.78;;;27.60;99.90;;;;;;4993986;28;20023;-72
2022/07/05 02:53:32;;;;;;;6.75;3.80;;;27.60;99.90;;;;;;4993946;28;20038;-72
2022/07/05 02:55:58;;;;;;;10.30;3.20;;;27.60;99.90;;;;;;4994120;28;20085;-72
2022/07/05 02:58:23;;;;;;;9.05;3.45;;;27.50;99.90;;;;;;4995957;28;20034;-72
2022/07/05 03:00:49;;;;;;;4.95;3.00;;;27.50;99.90;;;;;;4997057;28;20042;-73
2022/07/05 03:03:15;;;;;;;6.93;3.80;;;27.50;99.90;;;;;;4993163;28;20042;-73
2022/07/05 03:05:41;;;;;;;7.63;3.58;;;27.50;99.90;;;;;;4993391;28;20026;-74
2022/07/05 03:08:07;;;;;;;10.30;3.20;;;27.50;99.90;;;;;;4994146;28;20026;-74
2022/07/05 03:10:34;;;;;;;9.00;3.47;;;27.40;99.90;;;;;;4996176;28;20540;-74
2022/07/05 03:13:00;;;;;;;7.32;3.20;;;27.40;99.90;;;;;;4993203;28;20031;-74
2022/07/05 03:15:25;;;;;;;8.77;3.45;;;27.40;99.90;;;;;;4992132;28;20030;-73
2022/07/05 03:17:51;;;;;;;8.88;2.90;;;27.40;99.90;;;;;;4994206;28;20019;-74
2022/07/05 03:20:17;;;;;;;6.43;3.45;;;27.30;99.90;;;;;;4992280;28;20030;-74
2022/07/05 03:22:43;;;;;;;9.88;3.50;;;27.30;99.90;;;;;;4993815;28;20022;-74
2022/07/05 03:25:09;;;;;;;7.57;3.67;;;27.30;99.90;;;;;;4991745;28;20065;-74
2022/07/05 03:27:35;;;;;;;6.10;3.15;;;27.20;99.90;;;;;;4993917;28;20030;-74
2022/07/05 03:30:01;;;;;;;11.80;2.95;;;27.20;99.90;;;;;;4993146;28;20022;-74
2022/07/05 03:32:27;;;;;;;7.43;3.35;;;27.10;99.90;;;;;;4996558;28;20018;-74
2022/07/05 03:34:53;;;;;;;9.52;3.47;;;27.10;99.90;;;;;;4992813;28;20031;-74
2022/07/05 03:37:19;;;;;;;5.13;3.10;;;27.10;99.90;;;;;;4993416;28;20093;-74
2022/07/05 03:39:44;;;;;;;4.65;2.90;;;27.00;99.90;;;;;;4992921;28;20034;-74
2022/07/05 03:42:10;;;;;;;6.80;3.47;;;27.00;99.90;;;;;;4996141;28;20363;-74
2022/07/05 03:44:36;;;;;;;5.22;3.45;;;27.00;99.90;;;;;;4993125;28;20049;-74
2022/07/05 03:47:02;;;;;;;6.07;3.33;;;27.00;99.90;;;;;;4993250;28;20041;-74
2022/07/05 03:49:27;;;;;;;8.40;3.10;;;27.00;99.90;;;;;;4992974;28;20081;-74
2022/07/05 03:51:53;;;;;;;7.05;3.03;;;27.00;99.90;;;;;;4992736;28;20033;-74
2022/07/05 03:54:19;;;;;;;10.80;3.35;;;27.00;99.90;;;;;;4992939;28;20485;-74
2022/07/05 03:56:45;;;;;;;9.98;3.50;;;27.00;99.90;;;;;;4992807;28;20033;-74
2022/07/05 03:59:10;;;;;;;5.70;3.22;;;27.00;99.90;;;;;;4992773;28;20613;-74
2022/07/05 04:01:36;;;;;;;7.97;3.33;;;27.00;99.90;;;;;;4994217;28;20053;-74
2022/07/05 04:04:02;;;;;;;8.75;3.50;;;27.00;99.90;;;;;;4992557;28;20042;-74
2022/07/05 04:06:28;;;;;;;12.13;3.58;;;26.90;99.90;;;;;;4991321;28;20032;-74
2022/07/05 04:08:54;;;;;;;6.22;3.15;;;27.00;99.90;;;;;;4992579;28;20030;-74
2022/07/05 04:11:19;;;;;;;5.32;3.40;;;27.00;99.90;;;;;;4995313;28;20507;-74
2022/07/05 04:13:45;;;;;;;8.65;3.58;;;27.00;99.90;;;;;;4992688;28;20043;-74
2022/07/05 04:16:11;;;;;;;6.18;3.45;;;27.00;99.90;;;;;;4990941;28;20081;-74
2022/07/05 04:18:37;;;;;;;7.05;3.38;;;27.00;99.90;;;;;;4992489;28;20062;-74
2022/07/05 04:21:04;;;;;;;11.10;4.15;;;27.00;99.90;;;;;;4992143;28;20559;-79
2022/07/05 04:23:31;;;;;;;3.80;3.03;;;26.90;99.90;;;;;;4991232;28;20047;-82
2022/07/05 04:25:56;;;;;;;10.32;3.75;;;26.90;99.90;;;;;;4990854;28;20033;-77
2022/07/05 04:28:22;;;;;;;9.50;3.80;;;26.90;99.90;;;;;;4992936;28;20026;-81
2022/07/05 04:30:48;;;;;;;6.72;4.07;;;26.90;99.90;;;;;;4993481;28;20026;-82
2022/07/05 04:33:14;;;;;;;16.95;4.00;;;26.70;99.90;;;;;;4992485;28;20087;-83
2022/07/05 04:35:39;;;;;;;6.20;3.78;;;26.60;99.90;;;;;;4992397;28;20520;-89
2022/07/05 04:38:05;;;;;;;8.90;4.18;;;26.60;99.90;;;;;;4974336;28;20497;-87
2022/07/05 04:40:31;;;;;;;8.25;3.63;;;26.60;99.90;;;;;;4991303;28;20376;-90
2022/07/05 04:42:56;;;;;;;9.07;4.00;;;26.50;99.90;;;;;;4994032;28;20787;-91
2022/07/05 04:45:22;;;;;;;6.68;3.88;;;26.50;99.90;;;;;;4993627;28;20065;-90
2022/07/05 04:47:48;;;;;;;9.35;4.13;;;26.50;99.90;;;;;;4994247;28;20018;-89
2022/07/05 04:50:13;;;;;;;9.77;4.53;;;26.50;99.90;;;;;;4993207;28;20026;-90
2022/07/05 04:52:39;;;;;;;6.30;4.10;;;26.50;99.90;;;;;;4994275;28;20390;-91
2022/07/05 04:55:05;;;;;;;7.30;4.20;;;26.60;99.90;;;;;;4994008;28;20014;-90
2022/07/05 04:57:41;;;;;;;8.38;4.00;;;26.50;99.90;;;;;;4993454;28;20026;-88
2022/07/05 05:00:12;;;;;;;8.30;4.03;;;26.50;99.90;;;;;;4984615;28;20082;-87
2022/07/05 05:02:38;;;;;;;9.02;4.20;;;26.50;99.90;;;;;;5004048;28;20133;-89
2022/07/05 05:05:04;;;;;;;11.55;4.55;;;26.50;99.90;;;;;;4991204;28;20114;-83
2022/07/05 05:07:30;;;;;;;7.43;3.97;;;26.60;99.90;;;;;;4992028;28;20678;-82
2022/07/05 05:09:56;;;;;;;6.70;3.88;;;26.60;99.90;;;;;;4990300;28;20038;-83
2022/07/05 05:12:22;;;;;;;9.05;4.35;;;26.60;99.90;;;;;;4993551;28;20026;-81
2022/07/05 05:14:48;;;;;;;6.25;4.15;;;26.60;99.90;;;;;;4990135;28;20026;-82
2022/07/05 05:17:14;;;;;;;8.73;4.68;;;26.70;99.90;;;;;;4990471;28;20713;-81
2022/07/05 05:19:40;;;;;;;8.85;4.13;;;26.80;99.90;;;;;;4991536;28;20038;-82
2022/07/05 05:22:05;;;;;;;8.50;4.00;;;26.80;99.90;;;;;;4989924;28;20026;-82
2022/07/05 05:24:34;;;;;;;9.77;3.88;;;26.80;99.90;;;;;;4991768;28;20113;-84
2022/07/05 05:27:03;;;;;;;7.97;4.40;;;26.80;99.90;;;;;;4991040;28;20105;-82
2022/07/05 05:29:29;;;;;;;6.05;3.83;;;26.90;99.90;;;;;;4991435;28;20061;-84
2022/07/05 05:31:54;;;;;;;7.63;4.20;;;26.90;99.90;;;;;;4994254;28;20043;-82
2022/07/05 05:34:20;;;;;;;7.60;4.07;;;26.90;99.90;;;;;;4991407;28;20388;-83
2022/07/05 05:36:46;;;;;;;6.13;4.18;;;26.90;99.90;;;;;;4991387;28;20457;-83
2022/07/05 05:39:12;;;;;;;10.25;4.03;;;27.00;99.90;;;;;;4990241;28;20058;-83
2022/07/05 05:41:38;;;;;;;6.13;3.88;;;27.00;99.90;;;;;;4994477;28;20019;-83
2022/07/05 05:44:04;;;;;;;7.15;3.97;;;27.00;99.90;;;;;;4989833;28;20089;-85
2022/07/05 05:46:30;;;;;;;9.35;4.00;;;27.10;99.90;;;;;;4989903;28;20462;-83
2022/07/05 05:48:55;;;;;;;7.28;4.45;;;27.10;99.90;;;;;;4991609;28;20076;-84
2022/07/05 05:54:05;;;;;;;6.00;4.00;;;27.20;99.90;;;;;;4991417;28;20042;-83
2022/07/05 05:56:31;;;;;;;6.05;4.20;;;27.30;99.90;;;;;;4989909;28;20022;-84
2022/07/05 05:58:57;;;;;;;5.00;3.67;;;27.30;99.90;;;;;;4991440;28;20030;-83
2022/07/05 06:01:22;;;;;;;8.65;3.90;;;27.40;99.90;;;;;;4989678;28;20105;-83
2022/07/05 06:03:48;;;;;;;9.50;4.10;;;27.40;99.90;;;;;;4991454;28;20032;-82
2022/07/05 06:06:14;;;;;;;9.60;4.85;;;27.40;99.90;;;;;;4990993;28;20030;-82
2022/07/05 06:08:39;;;;;;;7.95;4.18;;;27.50;99.90;;;;;;4991339;28;20370;-82
2022/07/05 06:11:05;;;;;;;7.35;4.20;;;27.60;99.90;;;;;;4993878;28;20027;-84
2022/07/05 06:13:31;;;;;;;9.65;4.30;;;27.60;99.90;;;;;;4989885;28;20022;-85
2022/07/05 06:15:57;;;;;;;12.50;4.20;;;27.70;99.90;;;;;;4991250;28;20481;-84
2022/07/05 06:18:22;;;;;;;7.22;4.05;;;27.80;99.90;;;;;;4991488;28;20112;-82
2022/07/05 06:20:48;;;;;;;10.35;4.38;;;27.80;99.90;;;;;;4990922;28;20026;-83
2022/07/05 06:23:14;;;;;;;13.88;5.50;;;27.90;99.90;;;;;;4990095;28;20038;-82
2022/07/05 06:25:40;;;;;;;9.50;4.50;;;27.90;99.90;;;;;;4989375;28;20125;-83
2022/07/05 06:28:08;;;;;;;6.13;4.00;;;27.90;99.90;;;;;;4982373;28;20031;-83
2022/07/05 06:30:36;;;;;;;10.38;4.00;;;28.00;99.90;;;;;;4993623;28;20362;-85
2022/07/05 06:33:02;;;;;;;8.25;4.32;;;28.00;99.90;;;;;;4981500;28;20022;-85
2022/07/05 06:35:29;;;;;;;5.88;4.07;;;28.10;99.90;;;;;;4990103;28;20371;-85
2022/07/05 06:37:57;;;;;;;7.40;4.22;;;28.10;99.90;;;;;;4991949;28;20037;-89
2022/07/05 06:40:26;;;;;;;6.25;4.15;;;28.20;99.90;;;;;;4987581;28;20037;-89
2022/07/05 06:42:53;;;;;;;9.15;3.85;;;28.30;99.90;;;;;;4995329;28;20026;-87
2022/07/05 06:45:19;;;;;;;9.93;3.95;;;28.30;99.90;;;;;;4991633;28;20474;-90
2022/07/05 06:47:45;;;;;;;10.30;3.85;;;28.40;99.90;;;;;;4991799;28;20077;-85
2022/07/05 06:50:11;;;;;;;10.20;4.30;;;28.50;99.90;;;;;;4989952;28;20022;-87
2022/07/05 06:52:39;;;;;;;8.13;3.63;;;28.50;99.90;;;;;;4992559;28;20064;-87
2022/07/05 06:55:05;;;;;;;9.70;4.22;;;28.60;99.90;;;;;;4988566;28;20023;-87
2022/07/05 06:57:31;;;;;;;6.90;4.07;;;28.70;99.90;;;;;;4991603;28;20018;-87
2022/07/05 06:59:56;;;;;;;7.75;3.45;;;28.70;99.90;;;;;;4991359;28;20061;-85
2022/07/05 07:02:22;;;;;;;9.73;3.63;;;28.80;99.90;;;;;;4993554;28;20042;-88
2022/07/05 07:04:49;;;;;;;6.68;3.35;;;28.90;99.90;;;;;;4992057;28;20505;-82
2022/07/05 07:09:59;;;;;;;12.63;3.17;;;29.00;99.90;;;;;;4991422;28;20048;-83
2022/07/05 07:12:26;;;;;;;7.60;3.17;;;29.00;99.90;;;;;;4991860;28;20022;-81
2022/07/05 07:14:52;;;;;;;4.20;3.30;;;29.10;99.90;;;;;;4992082;28;20609;-74
2022/07/05 07:17:17;;;;;;;4.00;3.20;;;29.10;99.90;;;;;;4988988;28;20063;-73
2022/07/05 07:19:43;;;;;;;5.03;3.08;;;29.20;99.90;;;;;;4991094;28;20033;-70
2022/07/05 07:22:09;;;;;;;5.18;3.20;;;29.20;99.90;;;;;;4989895;28;20026;-70
2022/07/05 07:24:34;;;;;;;5.55;3.17;;;29.30;99.90;;;;;;4991711;28;20053;-71
2022/07/05 07:27:03;;;;;;;5.60;3.45;;;29.40;99.90;;;;;;4991125;28;20637;-78
2022/07/05 07:29:30;;;;;;;5.90;2.65;;;29.50;99.90;;;;;;4992349;28;20061;-72
2022/07/05 07:31:56;;;;;;;5.97;3.13;;;29.50;99.90;;;;;;4993091;28;20102;-73
2022/07/05 07:34:23;;;;;;;11.77;3.28;;;29.60;99.30;;;;;;4990657;28;20397;-73
2022/07/05 07:36:49;;;;;;;6.97;3.60;;;29.70;99.50;;;;;;4990421;28;20466;-72
2022/07/05 07:39:15;;;;;;;12.48;3.25;;;29.70;98.70;;;;;;4991892;28;20039;-73
2022/07/05 07:41:40;;;;;;;4.30;3.17;;;29.80;99.20;;;;;;4993310;28;20026;-78
2022/07/05 07:44:06;;;;;;;4.90;3.10;;;29.80;99.00;;;;;;4985775;28;20046;-72
2022/07/05 07:46:32;;;;;;;5.82;3.20;;;29.90;99.00;;;;;;4990930;28;20401;-73
2022/07/05 07:48:58;;;;;;;4.93;2.72;;;29.90;98.60;;;;;;4991685;28;20108;-72
2022/07/05 07:51:24;;;;;;;5.15;2.80;;;30.00;98.20;;;;;;4988760;28;20430;-72
2022/07/05 07:53:50;;;;;;;7.20;2.97;;;30.10;98.00;;;;;;4991415;28;20584;-72
2022/07/05 07:56:16;;;;;;;7.20;2.70;;;30.10;97.30;;;;;;4990450;28;20080;-72
2022/07/05 07:58:42;;;;;;;6.13;2.88;;;30.10;97.60;;;;;;4991469;28;20025;-71
2022/07/05 08:01:10;;;;;;;6.13;2.70;;;30.10;97.40;;;;;;4991311;28;20038;-72
2022/07/05 08:03:38;;;;;;;6.80;3.33;;;30.10;97.60;;;;;;4987111;28;20505;-73
2022/07/05 08:06:04;;;;;;;5.85;2.88;;;30.20;97.60;;;;;;4988639;28;20023;-77
2022/07/05 08:08:29;;;;;;;5.22;2.90;;;30.30;97.20;;;;;;4990180;28;20054;-72
2022/07/05 08:10:55;;;;;;;4.85;2.78;;;30.40;96.90;;;;;;4990470;28;20111;-73
2022/07/05 08:13:21;;;;;;;7.00;2.95;;;30.40;96.60;;;;;;4989507;28;20034;-72
2022/07/05 08:15:46;;;;;;;10.43;3.22;;;30.40;96.70;;;;;;4988877;28;20504;-72
2022/07/05 08:23:40;;;;;;;4.68;3.00;;;30.70;96.70;;;;;;4989289;28;20044;-71
2022/07/05 08:26:06;;;;;;;6.22;2.90;;;30.80;96.20;;;;;;4990938;28;20541;-75
2022/07/05 08:28:32;;;;;;;8.52;3.15;;;30.90;96.20;;;;;;4989382;28;20030;-74
2022/07/05 08:30:57;;;;;;;5.88;3.20;;;30.90;95.50;;;;;;4991129;28;20019;-72
2022/07/05 08:33:24;;;;;;;8.98;3.08;;;31.00;95.80;;;;;;4983686;28;20097;-72
2022/07/05 08:35:50;;;;;;;3.67;2.42;;;31.00;95.70;;;;;;4988170;28;20030;-73
2022/07/05 08:38:15;;;;;;;8.70;3.35;;;31.10;95.50;;;;;;4991128;28;20041;-76
2022/07/05 08:40:47;;;;;;;6.57;2.80;;;31.20;95.50;;;;;;4989466;28;20028;-72
2022/07/05 08:43:14;;;;;;;6.47;2.88;;;31.30;95.30;;;;;;4988993;28;20393;-73
2022/07/05 08:45:43;;;;;;;3.75;2.75;;;31.40;95.30;;;;;;4989190;28;20452;-77
2022/07/05 08:48:10;;;;;;;3.80;2.88;;;31.50;95.10;;;;;;4991540;28;20025;-72
2022/07/05 08:50:39;;;;;;;6.07;2.97;;;31.60;94.00;;;;;;4988357;28;20473;-74
2022/07/05 08:53:06;;;;;;;5.03;2.60;;;31.80;94.20;;;;;;4991033;28;20517;-72
2022/07/05 08:55:34;;;;;;;3.67;2.28;;;32.00;94.00;;;;;;4989042;28;20030;-73
2022/07/05 08:58:01;;;;;;;4.45;2.28;;;32.30;92.30;;;;;;4987391;28;20044;-73
2022/07/05 09:00:27;;;;;;;4.28;2.42;;;32.50;92.40;;;;;;4988334;28;20033;-73
2022/07/05 09:02:53;;;;;;;2.75;2.10;;;32.70;91.70;;;;;;4989845;28;20026;-73
2022/07/05 09:05:23;;;;;;;6.82;2.63;;;32.90;91.30;;;;;;4989727;28;20042;-73
2022/07/05 09:08:10;;;;;;;5.18;2.50;;;33.10;91.20;;;;;;4984769;28;20027;-73
2022/07/05 09:10:37;;;;;;;8.68;2.50;;;33.30;89.50;;;;;;4990103;28;20038;-74
2022/07/05 09:13:03;;;;;;;8.18;2.40;;;33.20;90.50;;;;;;4991056;28;20130;-75
2022/07/05 09:15:30;;;;;;;5.70;2.17;;;33.10;90.00;;;;;;4989710;28;20026;-76
2022/07/05 09:17:55;;;;;;;3.38;2.40;;;33.30;90.00;;;;;;4989348;28;20034;-76
2022/07/05 09:20:21;;;;;;;5.47;2.40;;;33.40;90.20;;;;;;4986102;28;20033;-75
2022/07/05 09:22:54;;;;;;;6.18;2.35;;;33.40;89.00;;;;;;4988980;28;20023;-74
2022/07/05 09:25:22;;;;;;;5.43;2.35;;;33.30;90.40;;;;;;4989263;28;20389;-74
2022/07/05 09:27:57;;;;;;;2.88;2.50;;;33.20;90.30;;;;;;4986188;28;20026;-73
2022/07/05 09:30:31;;;;;;;5.00;2.40;;;33.00;90.80;;;;;;4987959;28;20044;-72
2022/07/05 09:33:07;;;;;;;8.00;2.50;;;33.00;90.70;;;;;;4989896;28;20568;-73
2022/07/05 09:35:36;;;;;;;4.30;2.28;;;33.20;90.90;;;;;;4989000;28;20033;-74
2022/07/05 09:38:03;;;;;;;4.97;2.80;;;33.40;90.70;;;;;;4986552;28;20273;-72
2022/07/05 09:40:31;;;;;;;5.15;2.45;;;33.60;90.40;;;;;;4992733;28;20401;-73
2022/07/05 09:43:21;;;;;;;5.68;2.60;;;33.80;90.10;;;;;;4990524;28;20029;-73
2022/07/05 09:46:03;;;;;;;4.75;2.22;;;34.10;90.10;;;;;;4995233;28;20027;-73
2022/07/05 09:48:32;;;;;;;7.18;2.72;;;34.60;89.10;;;;;;4985602;28;20034;-74
2022/07/05 09:51:13;;;;;;;5.95;2.03;;;34.90;87.00;;;;;;4989906;28;20025;-73
2022/07/05 09:53:50;;;;;;;;;;;35.10;85.50;;;;;;4988663;28;20062;-73
2022/07/05 09:56:17;;;;;;;6.68;2.47;;;35.20;85.00;;;;;;4986940;28;19913;-73
2022/07/05 09:58:43;;;;;;;3.83;2.22;;;35.10;84.30;;;;;;4989730;28;20117;-73
2022/07/05 10:01:28;;;;;;;7.47;2.67;;;35.10;84.40;;;;;;4992630;28;20457;-75
2022/07/05 10:03:57;;;;;;;2.60;2.00;;;35.10;84.40;;;;;;4989290;28;20068;-75
2022/07/05 10:06:24;;;;;;;3.67;2.40;;;35.00;84.60;;;;;;4988012;28;20034;-74
2022/07/05 10:08:50;;;;;;;6.63;2.13;;;34.90;85.10;;;;;;4989381;28;20050;-76
2022/07/05 10:11:21;;;;;;;5.18;2.42;;;34.80;85.10;;;;;;4992044;28;20515;-73
2022/07/05 10:13:51;;;;;;;4.43;2.58;;;34.70;85.00;;;;;;4992320;28;20117;-73
2022/07/05 10:16:19;;;;;;;3.85;1.90;;;34.70;85.50;;;;;;4993289;28;20481;-73
2022/07/05 10:18:51;;;;;;;3.67;2.22;;;34.70;85.30;;;;;;4992338;28;20452;-75
2022/07/05 10:21:18;;;;;;;4.57;2.33;;;34.80;84.50;;;;;;4991949;28;20027;-74
2022/07/05 10:23:46;;;;;;;4.03;2.15;;;34.90;84.50;;;;;;4992940;28;20449;-74
2022/07/05 10:26:13;;;;;;;4.88;2.03;;;35.10;84.00;;;;;;4992958;28;20227;-72
2022/07/05 10:28:47;;;;;;;8.15;2.45;;;35.20;84.00;;;;;;4994687;28;20029;-74
2022/07/05 10:31:15;;;;;;;2.33;2.03;;;35.30;84.40;;;;;;4994582;28;20030;-75
2022/07/05 10:33:41;;;;;;;4.43;2.38;;;35.30;85.10;;;;;;4994331;28;20081;-75
2022/07/05 10:36:13;;;;;;;4.75;2.60;;;35.20;85.00;;;;;;4990746;28;20069;-75
2022/07/05 10:38:42;;;;;;;5.82;2.45;;;35.30;85.30;;;;;;4993010;28;20419;-74
2022/07/05 10:41:18;;;;;;;4.22;2.00;;;35.30;83.50;;;;;;4987238;28;20027;-72
2022/07/05 10:43:44;;;;;;;9.23;2.40;;;35.20;84.60;;;;;;4989514;28;20409;-72
2022/07/05 10:46:09;;;;;;;5.20;2.55;;;35.20;84.00;;;;;;4994078;28;20022;-73
2022/07/05 10:48:36;;;;;;;5.65;1.98;;;35.30;83.80;;;;;;4994255;28;20027;-74
2022/07/05 10:51:15;;;;;;;3.58;2.10;;;35.40;83.00;;;;;;4992567;28;20049;-74
2022/07/05 10:53:40;;;;;;;6.45;2.40;;;35.40;82.10;;;;;;4994047;28;20030;-74
2022/07/05 10:56:12;;;;;;;3.65;1.77;;;35.40;81.30;;;;;;4993895;28;20118;-75
2022/07/05 10:58:44;;;;;;;4.07;1.88;;;35.30;82.00;;;;;;4992764;28;20022;-75
2022/07/05 11:01:14;;;;;;;5.72;1.88;;;35.40;81.20;;;;;;5009993;28;20400;-73
2022/07/05 11:03:47;;;;;;;2.70;1.40;;;35.40;79.10;;;;;;4993878;28;20401;-75
2022/07/05 11:06:23;;;;;;;3.42;1.30;;;35.30;78.20;;;;;;4990813;28;20033;-72
2022/07/05 11:09:02;;;;;;;3.92;1.30;;;35.30;77.40;;;;;;4993783;28;20054;-72
2022/07/05 11:11:32;;;;;;;3.97;1.60;;;35.20;77.30;;;;;;4991611;28;20029;-72
2022/07/05 11:14:00;;;;;;;3.45;1.50;;;35.20;77.90;;;;;;4993730;28;20026;-72
2022/07/05 11:16:30;;;;;;;1.60;1.25;;;35.10;77.40;;;;;;4989817;28;20027;-73
2022/07/05 11:19:09;;;;;;;4.43;1.75;;;35.10;77.00;;;;;;4992354;28;20022;-73
2022/07/05 11:21:37;;;;;;;2.00;1.63;;;35.00;77.80;;;;;;4990768;28;20018;-73
2022/07/05 11:24:22;;;;;;;2.50;1.23;;;34.90;79.20;;;;;;4992460;28;20034;-71
2022/07/05 11:26:49;;;;;;;3.42;1.35;;;34.80;78.90;;;;;;4993519;28;20026;-72
2022/07/05 11:29:47;;;;;;;4.07;1.30;;;34.90;78.60;;;;;;4993618;28;20032;-72
2022/07/05 11:32:14;;;;;;;2.13;1.30;;;35.00;76.50;;;;;;4995922;28;20023;-72
2022/07/05 11:34:42;;;;;;;1.98;1.40;;;35.10;77.00;;;;;;4991738;28;20489;-73
2022/07/05 11:37:24;;;;;;;2.83;1.42;;;35.30;76.60;;;;;;4993343;28;20042;-73
2022/07/05 11:40:10;;;;;;;2.65;1.30;;;35.40;75.60;;;;;;4992932;28;20034;-71
2022/07/05 11:42:46;;;;;;;2.08;1.23;;;35.70;75.20;;;;;;4995035;28;20030;-73
2022/07/05 11:45:12;;;;;;;4.78;1.20;;;36.00;75.30;;;;;;4991319;28;20057;-71
2022/07/05 11:47:38;;;;;;;2.88;1.20;;;36.50;74.00;;;;;;4993169;28;20027;-72
2022/07/05 11:50:05;;;;;;;3.50;0.90;;;37.00;72.50;;;;;;4991440;28;20050;-72
2022/07/05 11:52:35;;;;;;;1.20;1.05;;;37.50;71.70;;;;;;4991814;28;20026;-73
2022/07/05 11:55:03;;;;;;;11.95;1.48;;;37.80;71.10;;;;;;4992549;28;20026;-72
2022/07/05 11:57:29;;;;;;;3.88;1.20;;;38.10;71.00;;;;;;4993317;28;20076;-73
2022/07/05 11:59:55;;;;;;;2.33;1.30;;;38.30;69.40;;;;;;4990755;28;20023;-73
2022/07/05 12:02:21;;;;;;;5.25;1.20;;;38.50;69.00;;;;;;4987998;28;20055;-72
2022/07/05 12:04:51;;;;;;;1.35;1.17;;;38.50;68.10;;;;;;4991472;28;20038;-72
2022/07/05 12:07:26;;;;;;;2.17;1.20;;;38.60;67.30;;;;;;4992017;28;20022;-72
2022/07/05 12:12:47;;;;;;;1.20;1.10;;;40.90;66.30;;;;;;5003599;28;20025;-72
2022/07/05 12:15:19;;;;;;;1.27;1.00;;;42.80;63.60;;;;;;4985352;28;20109;-73
2022/07/05 12:17:47;;;;;;;6.60;1.35;;;44.50;63.10;;;;;;4990650;28;20030;-75
2022/07/05 12:20:15;;;;;;;1.35;1.00;;;46.00;60.40;;;;;;4991347;28;20485;-73
2022/07/05 12:22:45;;;;;;;2.47;1.08;;;46.90;57.20;;;;;;4992244;28;20057;-73
2022/07/05 12:25:13;;;;;;;2.37;1.30;;;47.80;56.70;;;;;;4990435;28;20038;-73
2022/07/05 12:27:40;;;;;;;4.90;1.25;;;48.90;53.90;;;;;;4990055;28;20055;-73
2022/07/05 12:30:09;;;;;;;1.73;1.13;;;49.90;52.80;;;;;;4988908;28;20030;-74
2022/07/05 12:33:03;;;;;;;2.60;1.25;;;51.00;51.50;;;;;;4993259;28;20023;-73
2022/07/05 12:35:33;;;;;;;6.05;1.52;;;51.90;50.30;;;;;;4990480;28;20026;-74
2022/07/05 12:38:07;;;;;;;1.90;1.30;;;52.70;49.00;;;;;;4989664;28;20022;-75
2022/07/05 12:40:33;;;;;;;4.40;1.70;;;53.50;47.60;;;;;;4992743;28;20029;-75
2022/07/05 12:43:05;;;;;;;2.05;1.90;;;54.40;46.20;;;;;;4991046;28;20022;-76
2022/07/05 12:45:31;;;;;;;6.25;2.20;;;55.10;45.20;;;;;;4990474;28;20481;-76
2022/07/05 12:47:59;;;;;;;2.63;2.40;;;56.10;44.50;;;;;;4991175;28;20057;-75
2022/07/05 12:50:29;;;;;;;2.72;2.53;;;56.70;43.20;;;;;;4991849;28;20121;-74
2022/07/05 12:58:46;;;;;;;3.83;3.60;;;57.70;41.80;;;;;;4991934;28;20050;-72
2022/07/05 13:01:26;;;;;;;4.63;4.22;;;58.00;40.60;;;;;;4992893;28;20047;-72
2022/07/05 13:04:15;;;;;;;4.88;4.47;;;58.40;40.50;;;;;;4991710;28;20473;-75
2022/07/05 13:06:59;;;;;;;4.70;4.40;;;58.60;40.30;;;;;;4990006;28;20050;-75